Flight Track Log - Related Links

Times and Time Zones

All times are in EDT time to prevent confusion due to time zone crossing. See the DAL268 flight status page for this flight to view local times or setup timezone preferences in your user account.

Time Position Orientation Groundspeed Altitude Reporting Facility
EDT Latitude Longitude Course Direction KTS MPH feet Rate Location/Type
Mon 02:22:14 PM 37.6060 -122.3820 142° Southeast  Level FlightAware ADS-B
Mon 02:25:29 PM 37.6325 -122.3630 29° Northeast 168 193 600 319 Climbing FlightAware ADS-B
Mon 02:25:41 PM 37.6400 -122.3550 40° Northeast 174 200 1,100 2,455 Climbing FlightAware ADS-B
Mon 02:25:51 PM 37.6454 -122.3470 50° Northeast 177 204 1,500 1,846 Climbing FlightAware ADS-B
Mon 02:26:07 PM 37.6539 -122.3340 50° Northeast 198 228 1,900 1,500 Climbing FlightAware ADS-B
Mon 02:26:19 PM 37.6613 -122.3230 50° Northeast 215 247 2,200 1,615 Climbing FlightAware ADS-B
Mon 02:26:33 PM 37.6708 -122.3090 49° Northeast 232 267 2,600 1,385 Climbing FlightAware ADS-B
Mon 02:26:45 PM 37.6793 -122.2960 50° Northeast 255 293 2,800 1,778 Climbing FlightAware ADS-B
Mon 02:27:00 PM 37.6914 -122.2780 50° Northeast 269 310 3,400 3,000 Climbing FlightAware ADS-B
Mon 02:27:13 PM 37.7019 -122.2620 50° Northeast 269 310 4,200 3,316 Climbing FlightAware ADS-B
Mon 02:27:38 PM 37.7211 -122.2310 52° Northeast 275 316 5,500 3,220 Climbing FlightAware ADS-B
Mon 02:27:54 PM 37.7357 -122.2120 46° Northeast 275 316 6,400 3,273 Climbing FlightAware ADS-B
Mon 02:28:00 PM 37.7408 -122.2060 43° Northeast 278 320 6,700 2,471 Climbing FlightAware ADS-B
Mon 02:28:11 PM 37.7522 -122.1940 40° Northeast 287 330 7,100 2,690 Climbing FlightAware ADS-B
Mon 02:28:29 PM 37.7718 -122.1760 36° Northeast 292 336 8,000 2,914 Climbing FlightAware ADS-B
Mon 02:28:46 PM 37.7902 -122.1590 36° Northeast 297 342 8,800 2,813 Climbing FlightAware ADS-B
Mon 02:29:01 PM 37.8074 -122.1430 36° Northeast 300 345 9,500 2,426 Climbing FlightAware ADS-B
Mon 02:29:33 PM 37.8437 -122.1090 36° Northeast 319 367 10,700 1,645 Climbing FlightAware ADS-B
Mon 02:30:03 PM 37.8825 -122.0740 35° Northeast 357 411 11,200 1,200 Climbing FlightAware ADS-B
Mon 02:30:33 PM 37.9244 -122.0350 36° Northeast 390 449 11,900 1,433 Climbing FlightAware ADS-B
Mon 02:31:10 PM 37.9813 -121.9820 36° Northeast 418 481 12,800 1,829 Climbing FlightAware ADS-B
Mon 02:31:55 PM 38.0533 -121.9160 36° Northeast 435 501 14,400 2,096 Climbing FlightAware ADS-B
Mon 02:32:33 PM 38.1140 -121.8600 36° Northeast 442 509 15,700 1,948 Climbing FlightAware ADS-B
Mon 02:33:12 PM 38.1780 -121.8010 36° Northeast 452 520 16,900 1,714 Climbing FlightAware ADS-B
Mon 02:33:43 PM 38.2320 -121.7500 37° Northeast 463 533 17,700 1,522 Climbing FlightAware ADS-B
Mon 02:34:19 PM 38.2950 -121.6910 36° Northeast 474 545 18,600 1,500 Climbing FlightAware ADS-B
Mon 02:34:55 PM 38.3590 -121.6310 36° Northeast 481 554 19,500 1,588 Climbing FlightAware ADS-B
Mon 02:35:27 PM 38.4150 -121.5770 37° Northeast 487 560 20,400 1,652 Climbing FlightAware ADS-B
Mon 02:36:04 PM 38.4720 -121.5020 46° Northeast 499 574 21,400 1,500 Climbing FlightAware ADS-B
Mon 02:36:39 PM 38.5260 -121.4130 52° Northeast 509 586 22,200 1,304 Climbing FlightAware ADS-B
Mon 02:37:13 PM 38.5700 -121.3360 54° Northeast 515 593 22,900 1,277 Climbing FlightAware ADS-B
Mon 02:37:26 PM 38.5916 -121.2990 53° Northeast 515 593 23,200 1,417 Climbing FlightAware ADS-B
Mon 02:38:25 PM 38.6760 -121.1530 53° Northeast 522 601 24,600 1,326 Climbing FlightAware ADS-B
Mon 02:39:01 PM 38.7270 -121.0640 54° Northeast 527 606 25,300 1,167 Climbing FlightAware ADS-B
Mon 02:39:37 PM 38.7790 -120.9730 54° Northeast 531 611 26,000 1,412 Climbing FlightAware ADS-B
Mon 02:40:09 PM 38.8260 -120.8920 53° Northeast 527 606 26,900 1,676 Climbing FlightAware ADS-B
Mon 02:40:45 PM 38.8760 -120.8060 53° Northeast 523 602 27,900 1,543 Climbing FlightAware ADS-B
Mon 02:41:19 PM 38.9280 -120.7160 53° Northeast 523 602 28,700 1,424 Climbing FlightAware ADS-B
Mon 02:41:44 PM 38.8859 -120.7884 233° Southwest 523 602 29,300 1,579 Climbing FlightAware ADS-B
Mon 02:42:16 PM 39.0045 -120.5838 53° Northeast 520 598 30,200 1,645 Climbing FlightAware ADS-B
Mon 02:42:46 PM 39.0513 -120.5025 53° Northeast 516 594 31,000 1,545 Climbing FlightAware ADS-B
Mon 02:43:22 PM 39.1033 -120.4118 54° Northeast 511 588 31,900 1,522 Climbing FlightAware ADS-B
Mon 02:43:53 PM 39.1460 -120.3373 54° Northeast 506 582 32,700 1,594 Climbing FlightAware ADS-B
Mon 02:44:26 PM 39.1882 -120.2634 54° Northeast 502 578 33,600 1,500 Climbing FlightAware ADS-B
Mon 02:45:05 PM 39.2454 -120.1630 54° Northeast 501 577 34,500 1,268 Climbing FlightAware ADS-B
Mon 02:45:37 PM 39.2877 -120.0885 54° Northeast 500 575 35,100 677 Climbing FlightAware ADS-B
Mon 02:46:07 PM 39.3304 -120.0132 54° Northeast 509 586 35,200 364 Climbing FlightAware ADS-B
Mon 02:46:43 PM 39.3798 -119.9257 54° Northeast 514 592 35,500 909 Climbing FlightAware ADS-B
Mon 02:47:13 PM 39.4217 -119.8513 54° Northeast 508 585 36,200 1,026 Climbing FlightAware ADS-B
Mon 02:47:59 PM 39.4842 -119.7399 54° Northeast 511 588 36,800 632 Climbing FlightAware ADS-B
Mon 02:48:29 PM 39.5272 -119.6631 54° Northeast 514 592 37,000 140 Climbing FlightAware ADS-B
Mon 02:49:25 PM 39.6044 -119.5250 54° Northeast 514 592 37,000  Level FlightAware ADS-B
Mon 02:49:56 PM 39.6477 -119.4473 54° Northeast 518 596 37,000  Level FlightAware ADS-B
Mon 02:50:38 PM 39.7050 -119.3440 54° Northeast 514 592 37,000  Level FlightAware ADS-B
Mon 02:51:16 PM 39.7590 -119.2470 54° Northeast 513 590 37,000  Level FlightAware ADS-B
Mon 02:51:52 PM 39.8080 -119.1580 54° Northeast 512 589 37,000  Level FlightAware ADS-B
Mon 02:52:24 PM 39.8520 -119.0780 54° Northeast 513 590 37,000  Level FlightAware ADS-B
Mon 02:53:00 PM 39.9030 -118.9850 54° Northeast 519 597 37,000  Level FlightAware ADS-B
Mon 02:53:36 PM 39.9540 -118.8920 54° Northeast 522 601 37,000  Level FlightAware ADS-B
Mon 02:54:16 PM 40.0075 -118.7942 54° Northeast 522 601 37,000  Level FlightAware ADS-B
Mon 02:54:46 PM 40.0498 -118.7166 55° Northeast 522 601 37,000  Level FlightAware ADS-B
Mon 02:55:20 PM 40.0980 -118.6270 55° Northeast 524 603 37,000  Level FlightAware ADS-B
Mon 02:55:56 PM 40.1381 -118.5276 62° Northeast 528 608 37,000  Level FlightAware ADS-B
Mon 02:56:31 PM 40.1690 -118.4230 69° East 527 606 37,000  Level FlightAware ADS-B
Mon 02:56:47 PM 40.1829 -118.3716 71° East 530 610 37,000  Level FlightAware ADS-B
Mon 02:57:17 PM 40.2067 -118.2839 70° East 530 610 37,000  Level FlightAware ADS-B
Mon 02:57:59 PM 40.2393 -118.1632 70° East 530 610 37,000  Level FlightAware ADS-B
Mon 02:58:29 PM 40.2637 -118.0726 70° East 527 606 37,000  Level FlightAware ADS-B
Mon 02:58:59 PM 40.2895 -117.9773 70° East 531 611 37,000  Level FlightAware ADS-B
Mon 02:59:34 PM 40.3165 -117.8771 71° East 531 611 37,000  Level FlightAware ADS-B
Mon 03:00:10 PM 40.3476 -117.7615 71° East 531 611 37,000  Level FlightAware ADS-B
Mon 03:00:46 PM 40.3764 -117.6540 71° East 532 612 37,000  Level FlightAware ADS-B
Mon 03:01:19 PM 40.3940 -117.5970 68° East 531 611 37,000  Level FlightAware ADS-B
Mon 03:01:45 PM 40.4247 -117.4726 72° East 533 613 37,000  Level FlightAware ADS-B
Mon 03:02:31 PM 40.4450 -117.4110 67° East 531 611 37,000  Level FlightAware ADS-B
Mon 03:03:07 PM 40.4710 -117.3180 70° East 531 611 37,000  Level FlightAware ADS-B
Mon 03:03:43 PM 40.4970 -117.2260 70° East 531 611 37,000  Level FlightAware ADS-B
Mon 03:04:19 PM 40.5220 -117.1330 70° East 531 611 37,000  Level FlightAware ADS-B
Mon 03:04:55 PM 40.5480 -117.0400 70° East 531 611 37,000  Level FlightAware ADS-B
Mon 03:05:32 PM 40.5740 -116.9440 70° East 531 611 37,000  Level FlightAware ADS-B
Mon 03:06:09 PM 40.6010 -116.8490 69° East 531 611 37,000  Level FlightAware ADS-B
Mon 03:06:45 PM 40.6270 -116.7560 70° East 531 611 37,000  Level FlightAware ADS-B
Mon 03:07:20 PM 40.6520 -116.6650 70° East 531 611 37,000  Level FlightAware ADS-B
Mon 03:07:56 PM 40.6770 -116.5720 70° East 531 611 37,000  Level FlightAware ADS-B
Mon 03:08:33 PM 40.7040 -116.4760 70° East 531 611 37,000  Level FlightAware ADS-B
Mon 03:09:00 PM 40.6185 -116.0950 106° East 537 618 37,000  Level FlightAware ADS-B
Mon 03:09:32 PM 40.6244 -115.9900 86° East 539 620 37,000  Level FlightAware ADS-B
Mon 03:10:02 PM 40.6298 -115.8910 86° East 539 620 37,000  Level FlightAware ADS-B
Mon 03:10:33 PM 40.6352 -115.7910 86° East 540 621 37,000  Level FlightAware ADS-B
Mon 03:11:05 PM 40.6408 -115.6870 86° East 544 626 37,000  Level FlightAware ADS-B
Mon 03:12:20 PM 40.6536 -115.4400 86° East 541 623 37,000  Level FlightAware ADS-B
Mon 03:12:50 PM 40.6586 -115.3410 86° East 540 621 37,000  Level FlightAware ADS-B
Mon 03:13:20 PM 40.6634 -115.2420 86° East 542 624 37,000  Level FlightAware ADS-B
Mon 03:13:35 PM 40.6657 -115.1948 86° East 543 625 37,000  Level FlightAware ADS-B
Mon 03:13:51 PM 40.6683 -115.1420 86° East 543 625 37,000  Level FlightAware ADS-B
Mon 03:14:09 PM 40.6710 -115.0836 86° East 541 623 37,000  Level FlightAware ADS-B
Mon 03:14:21 PM 40.6730 -115.0430 86° East 540 621 37,000  Level FlightAware ADS-B
Mon 03:14:39 PM 40.6755 -114.9883 87° East 539 620 37,000  Level FlightAware ADS-B
Mon 03:14:51 PM 40.6776 -114.9430 86° East 541 623 37,000  Level FlightAware ADS-B
Mon 03:15:17 PM 40.6813 -114.8627 87° East 543 625 37,000  Level FlightAware ADS-B
Mon 03:15:23 PM 40.6823 -114.8390 87° East 542 624 37,000  Level FlightAware ADS-B
Mon 03:15:56 PM 40.6871 -114.7330 87° East 537 618 37,000  Level FlightAware ADS-B
Mon 03:16:12 PM 40.6892 -114.6842 87° East 540 621 37,000  Level FlightAware ADS-B
Mon 03:16:26 PM 40.6915 -114.6330 87° East 543 625 37,000  Level FlightAware ADS-B
Mon 03:16:57 PM 40.6957 -114.5340 87° East 536 617 37,000 130 Level FlightAware ADS-B
Mon 03:17:12 PM 40.6978 -114.4848 87° East 540 621 37,100  Climbing FlightAware ADS-B
Mon 03:17:27 PM 40.6998 -114.4350 87° East 543 625 37,000 -353 Descending FlightAware ADS-B
Mon 03:17:46 PM 40.7022 -114.3773 87° East 540 621 36,900  Descending FlightAware ADS-B
Mon 03:17:57 PM 40.7039 -114.3370 87° East 536 617 37,000 146 Climbing FlightAware ADS-B
Mon 03:18:27 PM 40.7076 -114.2469 87° East 539 620 37,000  Level FlightAware ADS-B
Mon 03:18:59 PM 40.7120 -114.1340 87° East 540 621 37,000  Level FlightAware ADS-B
Mon 03:19:15 PM 40.7140 -114.0832 87° East 540 621 37,000  Level FlightAware ADS-B
Mon 03:19:29 PM 40.7158 -114.0350 87° East 541 623 37,000  Level FlightAware ADS-B
Mon 03:19:47 PM 40.7175 -113.9916 87° East 540 621 37,000  Level FlightAware ADS-B
Mon 03:20:00 PM 40.7196 -113.9350 87° East 540 621 37,000  Level FlightAware ADS-B
Mon 03:20:28 PM 40.7228 -113.8497 87° East 541 623 37,000  Level FlightAware ADS-B
Mon 03:20:30 PM 40.7233 -113.8350 87° East 541 623 37,000  Level FlightAware ADS-B
Mon 03:20:58 PM 40.7277 -113.7470 86° East 538 619 37,000  Level FlightAware ADS-B
Mon 03:21:03 PM 40.7289 -113.7270 85° East 538 619 37,000  Level FlightAware ADS-B
Mon 03:21:29 PM 40.7350 -113.6425 85° East 536 617 37,000  Level FlightAware ADS-B
Mon 03:21:34 PM 40.7360 -113.6280 85° East 536 617 37,000  Level FlightAware ADS-B
Mon 03:22:13 PM 40.7458 -113.4990 84° East 538 619 37,000  Level FlightAware ADS-B
Mon 03:22:22 PM 40.7478 -113.4715 84° East 541 623 37,000  Level FlightAware ADS-B
Mon 03:22:43 PM 40.7531 -113.4020 84° East 539 620 37,000  Level FlightAware ADS-B
Mon 03:23:01 PM 40.7574 -113.3452 84° East 539 620 37,000  Level FlightAware ADS-B
Mon 03:23:21 PM 40.7623 -113.2790 84° East 542 624 37,000  Level FlightAware ADS-B
Mon 03:23:33 PM 40.7648 -113.2446 84° East 544 626 37,000  Level FlightAware ADS-B
Mon 03:23:59 PM 40.7716 -113.1520 84° East 542 624 37,000  Level FlightAware ADS-B
Mon 03:24:04 PM 40.7724 -113.1408 85° East 542 624 37,000  Level FlightAware ADS-B
Mon 03:24:29 PM 40.7787 -113.0530 85° East 541 623 37,000  Level FlightAware ADS-B
Mon 03:24:37 PM 40.7804 -113.0297 85° East 541 623 37,000  Level FlightAware ADS-B
Mon 03:25:01 PM 40.7861 -112.9480 85° East 545 627 37,000  Level FlightAware ADS-B
Mon 03:25:07 PM 40.7866 -112.9418 84° East 546 628 37,000  Level FlightAware ADS-B
Mon 03:25:31 PM 40.7931 -112.8490 85° East 544 626 37,000  Level FlightAware ADS-B
Mon 03:25:47 PM 40.7966 -112.7986 85° East 543 625 37,000  Level FlightAware ADS-B
Mon 03:26:02 PM 40.8001 -112.7480 85° East 544 626 37,000  Level FlightAware ADS-B
Mon 03:26:33 PM 40.8070 -112.6460 85° East 543 625 37,000  Level FlightAware ADS-B
Mon 03:26:47 PM 40.8100 -112.6033 85° East 542 624 37,000  Level FlightAware ADS-B
Mon 03:27:03 PM 40.8138 -112.5460 85° East 541 623 37,000  Level FlightAware ADS-B
Mon 03:27:34 PM 40.8204 -112.4470 85° East 539 620 37,000  Level FlightAware ADS-B
Mon 03:27:35 PM 40.8206 -112.4430 86° East 539 620 37,000  Level FlightAware ADS-B
Mon 03:28:05 PM 40.8266 -112.3524 85° East 542 624 37,000  Level FlightAware ADS-B
Mon 03:28:37 PM 40.8338 -112.2410 85° East 545 627 37,000  Level FlightAware ADS-B
Mon 03:28:38 PM 40.8340 -112.2383 85° East 545 627 37,000  Level FlightAware ADS-B
Mon 03:29:07 PM 40.8403 -112.1400 85° East 540 621 37,000  Level FlightAware ADS-B
Mon 03:29:18 PM 40.8417 -112.1176 85° East 538 619 37,000  Level FlightAware ADS-B
Mon 03:29:32 PM 40.8455 -112.0600 85° East 538 619 37,000  Level FlightAware ADS-B
Mon 03:29:50 PM 40.8521 -111.9990 82° East 541 623 37,000  Level FlightAware ADS-B
Mon 03:29:51 PM 40.8521 -111.9991 318° Northwest 541 623 37,000  Level FlightAware ADS-B
Mon 03:30:03 PM 40.8592 -111.9570 77° East 542 624 37,000  Level FlightAware ADS-B
Mon 03:30:21 PM 40.8711 -111.9037 74° East 541 623 37,000  Level FlightAware ADS-B
Mon 03:30:34 PM 40.8820 -111.8600 72° East 542 624 37,000  Level FlightAware ADS-B
Mon 03:31:08 PM 40.9092 -111.7550 71° East 538 619 37,000  Level FlightAware ADS-B
Mon 03:31:24 PM 40.9222 -111.7065 70° East 535 616 37,000 194 Level FlightAware ADS-B
Mon 03:31:39 PM 40.9345 -111.6600 71° East 536 617 37,100  Climbing FlightAware ADS-B
Mon 03:32:04 PM 40.9546 -111.5843 71° East 542 624 37,000 -387 Descending FlightAware ADS-B
Mon 03:32:10 PM 40.9604 -111.5620 71° East 542 624 36,900  Descending FlightAware ADS-B
Mon 03:32:45 PM 40.9886 -111.4540 71° East 533 613 37,000 113 Climbing FlightAware ADS-B
Mon 03:33:03 PM 41.0028 -111.3998 71° East 534 615 37,000  Level FlightAware ADS-B
Mon 03:33:15 PM 41.0126 -111.3620 71° East 534 615 37,000  Level FlightAware ADS-B
Mon 03:33:45 PM 41.0366 -111.2690 71° East 536 617 37,000  Level FlightAware ADS-B
Mon 03:34:16 PM 41.0613 -111.1730 71° East 535 616 37,000  Level FlightAware ADS-B
Mon 03:34:46 PM 41.0850 -111.0810 71° East 534 615 37,000  Level FlightAware ADS-B
Mon 03:35:17 PM 41.1091 -110.9860 71° East 535 616 37,000  Level FlightAware ADS-B
Mon 03:35:47 PM 41.1333 -110.8910 71° East 537 618 37,000  Level FlightAware ADS-B
Mon 03:36:17 PM 41.1569 -110.7970 72° East 533 613 37,000  Level FlightAware ADS-B
Mon 03:36:55 PM 41.1863 -110.6800 72° East 531 611 37,000  Level FlightAware ADS-B
Mon 03:37:25 PM 41.2097 -110.5870 71° East 533 613 37,000  Level FlightAware ADS-B
Mon 03:37:56 PM 41.2330 -110.4940 72° East 532 612 37,000  Level FlightAware ADS-B
Mon 03:38:56 PM 41.2650 -110.3790 70° East 531 611 37,000  Level FlightAware ADS-B
Mon 03:39:32 PM 41.2890 -110.2840 71° East 531 611 37,000  Level FlightAware ADS-B
Mon 03:40:07 PM 41.3330 -110.0890 73° East 534 615 37,000  Level FlightAware ADS-B
Mon 03:40:39 PM 41.3580 -109.9870 72° East 534 615 37,000  Level FlightAware ADS-B
Mon 03:41:14 PM 41.3840 -109.8790 72° East 536 617 37,000  Level FlightAware ADS-B
Mon 03:41:49 PM 41.4110 -109.7690 72° East 535 616 37,000  Level FlightAware ADS-B
Mon 03:42:25 PM 41.4390 -109.6540 72° East 536 617 37,000  Level FlightAware ADS-B
Mon 03:43:02 PM 41.4650 -109.5430 73° East 539 620 37,000  Level FlightAware ADS-B
Mon 03:43:34 PM 41.4900 -109.4400 72° East 538 619 37,000  Level FlightAware ADS-B
Mon 03:44:10 PM 41.5170 -109.3270 72° East 538 619 37,000  Level FlightAware ADS-B
Mon 03:44:42 PM 41.5410 -109.2250 73° East 538 619 37,000  Level FlightAware ADS-B
Mon 03:45:19 PM 41.5670 -109.1160 72° East 538 619 37,000  Level FlightAware ADS-B
Mon 03:45:55 PM 41.5900 -108.9920 76° East 539 620 37,000  Level FlightAware ADS-B
Mon 03:46:30 PM 41.6020 -108.8750 82° East 538 619 37,000  Level FlightAware ADS-B
Mon 03:47:06 PM 41.6110 -108.7560 84° East 537 618 37,000  Level FlightAware ADS-B
Mon 03:47:39 PM 41.6190 -108.6530 84° East 538 619 37,000  Level FlightAware ADS-B
Mon 03:48:14 PM 41.6280 -108.5320 84° East 539 620 37,000  Level FlightAware ADS-B
Mon 03:48:44 PM 41.6350 -108.4320 85° East 539 620 37,000  Level FlightAware ADS-B
Mon 03:49:26 PM 41.6450 -108.2950 84° East 539 620 37,000  Level FlightAware ADS-B
Mon 03:50:02 PM 41.6540 -108.1740 84° East 539 620 37,000  Level FlightAware ADS-B
Mon 03:50:35 PM 41.6610 -108.0690 85° East 538 619 37,000  Level FlightAware ADS-B
Mon 03:51:04 PM 41.6680 -107.9680 85° East 539 620 37,000  Level FlightAware ADS-B
Mon 03:51:44 PM 41.6780 -107.8360 84° East 538 619 37,000  Level FlightAware ADS-B
Mon 03:52:23 PM 41.6860 -107.7160 85° East 537 618 37,000  Level FlightAware ADS-B
Mon 03:52:56 PM 41.6940 -107.6010 85° East 537 618 37,000  Level FlightAware ADS-B
Mon 03:53:28 PM 41.7010 -107.4930 85° East 535 616 37,000  Level FlightAware ADS-B
Mon 03:54:05 PM 41.7080 -107.3740 85° East 536 617 37,000  Level FlightAware ADS-B
Mon 03:54:43 PM 41.7170 -107.2480 84° East 532 612 37,000  Level FlightAware ADS-B
Mon 03:55:14 PM 41.7230 -107.1480 85° East 532 612 37,000  Level FlightAware ADS-B
Mon 03:55:57 PM 41.7310 -107.0310 85° East 532 612 37,000  Level FlightAware ADS-B
Mon 03:56:33 PM 41.7370 -106.9300 85° East 532 612 37,000  Level FlightAware ADS-B
Mon 03:57:09 PM 41.7440 -106.8290 85° East 532 612 37,000  Level FlightAware ADS-B
Mon 03:57:45 PM 41.7500 -106.7290 85° East 532 612 37,000  Level FlightAware ADS-B
Mon 03:58:21 PM 41.7570 -106.6280 85° East 532 612 37,000  Level FlightAware ADS-B
Mon 03:58:48 PM 41.7650 -106.4460 87° East 527 606 37,000  Level FlightAware ADS-B
Mon 03:59:20 PM 41.7710 -106.3420 86° East 529 609 37,000  Level FlightAware ADS-B
Mon 03:59:56 PM 41.7770 -106.2240 86° East 526 605 37,000  Level FlightAware ADS-B
Mon 04:00:32 PM 41.7840 -106.1060 85° East 527 606 37,000  Level FlightAware ADS-B
Mon 04:01:08 PM 41.7900 -105.9890 86° East 528 608 37,000  Level FlightAware ADS-B
Mon 04:01:50 PM 41.7970 -105.8670 86° East 527 606 37,000  Level FlightAware ADS-B
Mon 04:02:24 PM 41.8030 -105.7410 86° East 526 605 37,000  Level FlightAware ADS-B
Mon 04:02:56 PM 41.8080 -105.6380 86° East 523 602 37,000  Level FlightAware ADS-B
Mon 04:03:36 PM 41.8140 -105.5100 86° East 524 603 37,000  Level FlightAware ADS-B
Mon 04:04:09 PM 41.8190 -105.4040 86° East 521 600 37,000  Level FlightAware ADS-B
Mon 04:04:46 PM 41.8250 -105.2850 86° East 523 602 37,000  Level FlightAware ADS-B
Mon 04:05:14 PM 41.8290 -105.1940 87° East 523 602 37,000  Level FlightAware ADS-B
Mon 04:05:53 PM 41.8350 -105.0690 86° East 526 605 37,000  Level FlightAware ADS-B
Mon 04:06:30 PM 41.8400 -104.9470 87° East 529 609 37,000  Level FlightAware ADS-B
Mon 04:07:06 PM 41.8450 -104.8270 87° East 531 611 37,000  Level FlightAware ADS-B
Mon 04:07:38 PM 41.8490 -104.7220 87° East 532 612 37,000  Level FlightAware ADS-B
Mon 04:08:13 PM 41.8540 -104.6070 87° East 537 618 37,000  Level FlightAware ADS-B
Mon 04:08:49 PM 41.8590 -104.4880 87° East 541 623 37,000  Level FlightAware ADS-B
Mon 04:09:29 PM 41.8640 -104.3520 87° East 540 621 37,000  Level FlightAware ADS-B
Mon 04:10:08 PM 41.8690 -104.2230 87° East 542 624 37,000  Level FlightAware ADS-B
Mon 04:10:41 PM 41.8730 -104.1130 87° East 545 627 37,000  Level FlightAware ADS-B
Mon 04:11:24 PM 41.8780 -103.9650 87° East 546 628 37,000  Level FlightAware ADS-B
Mon 04:11:42 PM 41.8800 -103.9080 87° East 545 627 37,000  Level FlightAware ADS-B
Mon 04:12:48 PM 41.8880 -103.6880 87° East 543 625 37,000  Level FlightAware ADS-B
Mon 04:13:24 PM 41.8920 -103.5670 87° East 543 625 37,000  Level FlightAware ADS-B
Mon 04:13:59 PM 41.9000 -103.4470 85° East 544 626 37,000  Level FlightAware ADS-B
Mon 04:14:37 PM 41.9140 -103.3390 80° East 544 626 37,000  Level FlightAware ADS-B
Mon 04:15:13 PM 41.9270 -103.2370 80° East 544 626 37,000  Level FlightAware ADS-B
Mon 04:15:49 PM 41.9410 -103.1350 80° East 544 626 37,000  Level FlightAware ADS-B
Mon 04:16:25 PM 41.9540 -103.0330 80° East 544 626 37,000  Level FlightAware ADS-B
Mon 04:17:01 PM 41.9680 -102.9310 80° East 544 626 37,000  Level FlightAware ADS-B
Mon 04:17:38 PM 41.9810 -102.8260 81° East 544 626 37,000  Level FlightAware ADS-B
Mon 04:18:14 PM 41.9950 -102.7240 80° East 544 626 37,000  Level FlightAware ADS-B
Mon 04:18:50 PM 42.0080 -102.6220 80° East 544 626 37,000  Level FlightAware ADS-B
Mon 04:19:26 PM 42.0210 -102.5200 80° East 544 626 37,000  Level FlightAware ADS-B
Mon 04:20:02 PM 42.0350 -102.4180 79° East 544 626 37,000  Level FlightAware ADS-B
Mon 04:20:39 PM 42.0480 -102.3130 81° East 544 626 37,000  Level FlightAware ADS-B
Mon 04:21:15 PM 42.0620 -102.2110 79° East 544 626 37,000  Level FlightAware ADS-B
Mon 04:21:52 PM 42.0760 -102.1060 80° East 544 626 37,000  Level FlightAware ADS-B
Mon 04:22:27 PM 42.0890 -102.0060 80° East 544 626 37,000  Level FlightAware ADS-B
Mon 04:23:05 PM 42.1030 -101.8980 80° East 544 626 37,000  Level FlightAware ADS-B
Mon 04:23:39 PM 42.1150 -101.8020 80° East 544 626 37,000  Level FlightAware ADS-B
Mon 04:25:00 PM 42.1822 -101.3153 80° East 532 612 37,000  Level Denver Center
Mon 04:26:02 PM 42.2081 -101.0961 81° East 532 612 37,000  Level Denver Center
Mon 04:27:04 PM 42.2303 -100.9075 81° East 531 611 37,000  Level Denver Center
Mon 04:28:05 PM 42.2556 -100.6881 81° East 530 610 37,000  Level Denver Center
Mon 04:34:07 PM 42.3902 -99.4753 81° East 538 619 37,000  Level FlightAware ADS-B
Mon 04:35:22 PM 42.4002 -99.3793 82° East 537 618 37,000  Level FlightAware ADS-B
Mon 04:36:13 PM 42.4332 -99.0593 82° East 536 617 37,000  Level FlightAware ADS-B
Mon 04:37:31 PM 42.4593 -98.8004 82° East 535 616 37,000  Level FlightAware ADS-B
Mon 04:38:03 PM 42.4689 -98.6926 83° East 535 616 37,000  Level FlightAware ADS-B
Mon 04:42:39 PM 42.5123 -97.8048 86° East 531 611 37,000  Level FlightAware ADS-B
Mon 04:43:50 PM 42.5230 -97.5430 87° East 528 608 37,000  Level FlightAware ADS-B
Mon 04:44:17 PM 42.5270 -97.4560 86° East 530 610 37,000  Level FlightAware ADS-B
Mon 04:45:00 PM 42.5330 -97.3130 87° East 529 609 37,000  Level FlightAware ADS-B
Mon 04:45:36 PM 42.5370 -97.2060 87° East 529 609 37,000  Level FlightAware ADS-B
Mon 04:45:57 PM 42.5399 -97.1246 87° East 530 610 37,000  Level FlightAware ADS-B
Mon 04:46:47 PM 42.5460 -96.9580 87° East 528 608 37,000  Level FlightAware ADS-B
Mon 04:47:24 PM 42.5500 -96.8340 87° East 528 608 37,000  Level FlightAware ADS-B
Mon 04:47:59 PM 42.5540 -96.7230 87° East 528 608 37,000  Level FlightAware ADS-B
Mon 04:48:31 PM 42.5580 -96.6150 87° East 528 608 37,000  Level FlightAware ADS-B
Mon 04:49:08 PM 42.5620 -96.4900 87° East 528 608 37,000  Level FlightAware ADS-B
Mon 04:49:40 PM 42.5650 -96.3850 88° East 528 608 37,000  Level FlightAware ADS-B
Mon 04:50:17 PM 42.5690 -96.2700 87° East 528 608 37,000  Level FlightAware ADS-B
Mon 04:50:53 PM 42.5730 -96.1440 87° East 527 606 37,000  Level FlightAware ADS-B
Mon 04:51:29 PM 42.5760 -96.0250 88° East 528 608 37,000  Level FlightAware ADS-B
Mon 04:52:05 PM 42.5790 -95.9060 88° East 530 610 37,000  Level FlightAware ADS-B
Mon 04:52:39 PM 42.5820 -95.7960 88° East 530 610 37,000  Level FlightAware ADS-B
Mon 04:53:14 PM 42.5851 -95.6758 88° East 530 610 37,000  Level FlightAware ADS-B
Mon 04:53:49 PM 42.5880 -95.5650 88° East 530 610 37,000  Level FlightAware ADS-B
Mon 04:54:24 PM 42.5910 -95.4460 88° East 530 610 37,000  Level FlightAware ADS-B
Mon 04:54:49 PM 42.5925 -95.3613 89° East 530 610 37,000  Level FlightAware ADS-B (LPVM)
Mon 04:54:51 PM 42.5925 -95.3596 90° East 530 610 37,000  Level FlightAware ADS-B
Mon 04:55:21 PM 42.5948 -95.2549 88° East 530 610 37,000  Level FlightAware ADS-B
Mon 04:55:23 PM 42.5949 -95.2480 89° East 530 610 37,000  Level FlightAware ADS-B (LPVM)
Mon 04:55:51 PM 42.5968 -95.1560 88° East 529 609 37,000  Level FlightAware ADS-B
Mon 04:55:54 PM 42.5970 -95.1477 88° East 528 608 37,000  Level FlightAware ADS-B (LPVM)
Mon 04:56:26 PM 42.5991 -95.0419 88° East 529 609 37,000  Level FlightAware ADS-B (LPVM)
Mon 04:56:38 PM 42.5978 -95.1110 269° West 528 608 37,000  Level FlightAware ADS-B
Mon 04:56:56 PM 42.6010 -94.9434 88° East 528 608 37,000  Level FlightAware ADS-B (LPVM)
Mon 04:57:45 PM 42.6039 -94.7808 89° East 528 608 37,000  Level FlightAware ADS-B (LPVM)
Mon 04:57:56 PM 42.6043 -94.7560 89° East 529 609 37,000  Level FlightAware ADS-B
Mon 04:58:27 PM 42.6060 -94.6410 89° East 528 608 37,000  Level FlightAware ADS-B
Mon 04:59:02 PM 42.6080 -94.5260 89° East 528 608 37,000  Level FlightAware ADS-B
Mon 04:59:22 PM 42.6088 -94.4606 89° East 528 608 37,000  Level FlightAware ADS-B
Mon 04:59:37 PM 42.6096 -94.4107 89° East 528 608 37,000  Level FlightAware ADS-B (LPVM)
Mon 05:00:13 PM 42.6110 -94.2900 89° East 528 608 37,000  Level FlightAware ADS-B
Mon 05:00:23 PM 42.6115 -94.2568 89° East 528 608 37,000  Level FlightAware ADS-B (LPVM)
Mon 05:01:23 PM 42.6130 -94.0600 89° East 528 608 37,000  Level FlightAware ADS-B
Mon 05:01:39 PM 42.6134 -94.0323 89° East 529 609 37,000  Level FlightAware ADS-B (LPVM)
Mon 05:02:02 PM 42.6141 -93.9330 89° East 529 609 37,000  Level FlightAware ADS-B
Mon 05:02:09 PM 42.6142 -93.9092 90° East 529 609 37,000  Level FlightAware ADS-B (LPVM)
Mon 05:03:06 PM 42.6150 -93.7190 90° East 529 609 37,000  Level FlightAware ADS-B
Mon 05:03:42 PM 42.6160 -93.6010 89° East 528 608 37,000  Level FlightAware ADS-B
Mon 05:04:14 PM 42.6160 -93.4960 90° East 528 608 37,000  Level FlightAware ADS-B
Mon 05:04:21 PM 42.6162 -93.4717 89° East 528 608 37,000  Level FlightAware ADS-B (LPVM)
Mon 05:04:52 PM 42.6160 -93.3710 90° East 528 608 37,000  Level FlightAware ADS-B
Mon 05:05:21 PM 42.6166 -93.2715 90° East 527 606 37,000  Level FlightAware ADS-B (LPVM)
Mon 05:06:01 PM 42.6170 -93.1530 90° East 527 606 37,000  Level FlightAware ADS-B
Mon 05:06:36 PM 42.6170 -93.0300 90° East 527 606 37,000  Level FlightAware ADS-B
Mon 05:07:10 PM 42.6160 -92.9130 91° East 526 605 37,000  Level FlightAware ADS-B
Mon 05:07:49 PM 42.6160 -92.8050 90° East 526 605 37,000  Level FlightAware ADS-B
Mon 05:08:22 PM 42.6160 -92.6840 90° East 525 604 37,000  Level FlightAware ADS-B
Mon 05:08:45 PM 42.6153 -92.6000 91° East 525 604 37,000  Level FlightAware ADS-B (LPVM)
Mon 05:09:28 PM 42.6145 -92.4592 90° East 524 603 37,000  Level FlightAware ADS-B (LPVM)
Mon 05:10:09 PM 42.6136 -92.3276 90° East 525 604 37,000  Level FlightAware ADS-B (LPVM)
Mon 05:10:44 PM 42.6130 -92.2180 90° East 525 604 37,000  Level FlightAware ADS-B
Mon 05:11:27 PM 42.6110 -92.0700 91° East 524 603 37,000  Level FlightAware ADS-B
Mon 05:11:43 PM 42.6109 -92.0157 90° East 524 603 37,000  Level FlightAware ADS-B (LPVM)
Mon 05:12:35 PM 42.6091 -91.8504 91° East 524 603 37,000  Level FlightAware ADS-B (LPVM)
Mon 05:13:08 PM 42.6080 -91.7621 91° East 524 603 37,000  Level FlightAware ADS-B (LPVM)
Mon 05:13:38 PM 42.6065 -91.6378 91° East 524 603 37,000  Level FlightAware ADS-B (LPVM)
Mon 05:14:19 PM 42.6046 -91.5065 91° East 525 604 37,000  Level FlightAware ADS-B (LPVM)
Mon 05:14:54 PM 42.6029 -91.3884 91° East 524 603 37,000 358 Level FlightAware ADS-B (LPVM)
Mon 05:15:26 PM 42.6012 -91.2835 91° East 524 603 37,400 857 Climbing FlightAware ADS-B (LPVM)
Mon 05:15:57 PM 42.5995 -91.1833 91° East 522 601 37,900 930 Climbing FlightAware ADS-B (LPVM)
Mon 05:16:37 PM 42.5972 -91.0521 91° East 521 600 38,500 822 Climbing FlightAware ADS-B (LPVM)
Mon 05:17:10 PM 42.5950 -90.9520 92° East 520 598 38,900 714 Climbing FlightAware ADS-B
Mon 05:17:19 PM 42.5946 -90.9173 91° East 520 598 39,000 154 Climbing FlightAware ADS-B (LPVM)
Mon 05:17:49 PM 42.5930 -90.8367 92° East 517 595 39,000  Level FlightAware ADS-B (LPVM)
Mon 05:18:19 PM 42.5907 -90.7276 92° East 516 594 39,000  Level FlightAware ADS-B (LPVM)
Mon 05:18:54 PM 42.5880 -90.6110 92° East 517 595 39,000  Level FlightAware ADS-B
Mon 05:19:31 PM 42.5850 -90.4910 92° East 519 597 39,000  Level FlightAware ADS-B
Mon 05:20:04 PM 42.5830 -90.3840 91° East 520 598 39,000  Level FlightAware ADS-B
Mon 05:20:40 PM 42.5800 -90.2660 92° East 520 598 39,000  Level FlightAware ADS-B
Mon 05:21:17 PM 42.5770 -90.1450 92° East 520 598 39,000  Level FlightAware ADS-B
Mon 05:21:52 PM 42.5740 -90.0310 92° East 520 598 39,000  Level FlightAware ADS-B
Mon 05:22:22 PM 42.5710 -89.9350 92° East 519 597 39,000  Level FlightAware ADS-B
Mon 05:23:01 PM 42.5670 -89.8060 92° East 520 598 39,000  Level FlightAware ADS-B
Mon 05:23:38 PM 42.5640 -89.6870 92° East 519 597 39,000  Level FlightAware ADS-B
Mon 05:24:09 PM 42.5610 -89.5880 92° East 518 596 39,000  Level FlightAware ADS-B
Mon 05:24:45 PM 42.5570 -89.4690 93° East 518 596 39,000  Level FlightAware ADS-B
Mon 05:25:22 PM 42.5530 -89.3520 93° East 517 595 39,000  Level FlightAware ADS-B
Mon 05:25:52 PM 42.5500 -89.2520 92° East 516 594 39,000  Level FlightAware ADS-B
Mon 05:26:31 PM 42.5450 -89.1270 93° East 516 594 39,000  Level FlightAware ADS-B
Mon 05:27:06 PM 42.5410 -89.0170 93° East 516 594 39,000  Level FlightAware ADS-B
Mon 05:27:43 PM 42.5370 -88.8970 93° East 517 595 39,000  Level FlightAware ADS-B
Mon 05:28:15 PM 42.5330 -88.7920 93° East 517 595 39,000  Level FlightAware ADS-B
Mon 05:28:50 PM 42.5290 -88.6800 93° East 516 594 39,000  Level FlightAware ADS-B
Mon 05:29:23 PM 42.5250 -88.5740 93° East 515 593 39,000  Level FlightAware ADS-B
Mon 05:30:01 PM 42.5200 -88.4500 93° East 514 592 39,000  Level FlightAware ADS-B
Mon 05:30:34 PM 42.5150 -88.3460 94° East 513 590 39,000  Level FlightAware ADS-B
Mon 05:31:11 PM 42.5100 -88.2310 93° East 513 590 39,000  Level FlightAware ADS-B
Mon 05:31:46 PM 42.5050 -88.1160 93° East 511 588 39,000  Level FlightAware ADS-B
Mon 05:32:22 PM 42.5010 -88.0000 93° East 509 586 39,000  Level FlightAware ADS-B
Mon 05:32:55 PM 42.5000 -87.8970 91° East 507 583 39,000  Level FlightAware ADS-B
Mon 05:33:29 PM 42.5000 -87.7940 90° East 507 583 39,000  Level FlightAware ADS-B
Mon 05:34:04 PM 42.5000 -87.6760 90° East 508 585 39,000  Level FlightAware ADS-B
Mon 05:34:37 PM 42.4990 -87.5730 91° East 507 583 39,000  Level FlightAware ADS-B
Mon 05:35:16 PM 42.4990 -87.4500 90° East 508 585 39,000  Level FlightAware ADS-B
Mon 05:35:52 PM 42.4980 -87.3330 91° East 507 583 39,000  Level FlightAware ADS-B
Mon 05:36:24 PM 42.4980 -87.2360 90° East 507 583 39,000  Level FlightAware ADS-B
Mon 05:37:02 PM 42.4970 -87.1240 91° East 507 583 39,000  Level FlightAware ADS-B
Mon 05:37:34 PM 42.4960 -87.0130 91° East 507 583 39,000  Level FlightAware ADS-B
Mon 05:38:08 PM 42.4950 -86.9050 91° East 507 583 39,000  Level FlightAware ADS-B
Mon 05:38:47 PM 42.4940 -86.7840 91° East 508 585 39,000  Level FlightAware ADS-B
Mon 05:39:20 PM 42.4930 -86.6790 91° East 508 585 39,000  Level FlightAware ADS-B
Mon 05:39:56 PM 42.4920 -86.5670 91° East 507 583 39,000  Level FlightAware ADS-B
Mon 05:40:33 PM 42.4900 -86.4450 91° East 507 583 39,000  Level FlightAware ADS-B
Mon 05:41:01 PM 42.4890 -86.3560 91° East 507 583 39,000  Level FlightAware ADS-B
Mon 05:41:40 PM 42.4870 -86.2320 91° East 508 585 39,000  Level FlightAware ADS-B
Mon 05:42:18 PM 42.4850 -86.1170 91° East 507 583 39,000  Level FlightAware ADS-B
Mon 05:42:50 PM 42.4830 -86.0190 92° East 507 583 39,000  Level FlightAware ADS-B
Mon 05:43:25 PM 42.4810 -85.9050 91° East 506 582 39,000  Level FlightAware ADS-B
Mon 05:44:07 PM 42.4790 -85.7680 91° East 506 582 39,000  Level FlightAware ADS-B
Mon 05:44:43 PM 42.4770 -85.6590 91° East 505 581 39,000  Level FlightAware ADS-B
Mon 05:45:17 PM 42.4750 -85.5470 91° East 504 580 39,000  Level FlightAware ADS-B
Mon 05:45:49 PM 42.4720 -85.4460 92° East 504 580 39,000  Level FlightAware ADS-B
Mon 05:46:23 PM 42.4700 -85.3420 91° East 503 579 39,000  Level FlightAware ADS-B
Mon 05:47:01 PM 42.4670 -85.2210 92° East 502 578 39,000  Level FlightAware ADS-B
Mon 05:47:39 PM 42.4640 -85.1050 92° East 502 578 39,000  Level FlightAware ADS-B
Mon 05:48:10 PM 42.4620 -85.0070 92° East 502 578 39,000  Level FlightAware ADS-B
Mon 05:48:48 PM 42.4590 -84.8920 92° East 501 577 39,000  Level FlightAware ADS-B
Mon 05:49:22 PM 42.4560 -84.7780 92° East 501 577 39,000  Level FlightAware ADS-B
Mon 05:49:58 PM 42.4520 -84.6650 93° East 502 578 39,000  Level FlightAware ADS-B
Mon 05:50:34 PM 42.4450 -84.5520 95° East 502 578 39,000  Level FlightAware ADS-B
Mon 05:51:09 PM 42.4390 -84.4490 94° East 501 577 39,000  Level FlightAware ADS-B
Mon 05:51:38 PM 42.4330 -84.3540 95° East 501 577 39,000  Level FlightAware ADS-B
Mon 05:52:21 PM 42.4250 -84.2230 95° East 499 574 39,000  Level FlightAware ADS-B
Mon 05:52:52 PM 42.4190 -84.1240 95° East 492 566 39,000  Level FlightAware ADS-B
Mon 05:53:28 PM 42.4120 -84.0130 95° East 487 560 39,000  Level FlightAware ADS-B
Mon 05:53:59 PM 42.4070 -83.9240 94° East 484 557 39,000 -500 Level FlightAware ADS-B
Mon 05:54:40 PM 42.3990 -83.7980 95° East 485 558 38,400 -779 Descending FlightAware ADS-B
Mon 05:55:16 PM 42.3920 -83.6900 95° East 493 567 38,000 -353 Descending FlightAware ADS-B
Mon 05:55:48 PM 42.3860 -83.5900 95° East 497 572 38,000  Level FlightAware ADS-B
Mon 05:56:24 PM 42.3790 -83.4770 95° East 497 572 38,000  Level FlightAware ADS-B
Mon 05:57:00 PM 42.3710 -83.3670 96° East 497 572 38,000  Level FlightAware ADS-B
Mon 05:57:36 PM 42.3640 -83.2570 95° East 495 570 38,000  Level FlightAware ADS-B
Mon 05:58:12 PM 42.3560 -83.1480 96° East 494 568 38,000  Level FlightAware ADS-B
Mon 05:58:44 PM 42.3490 -83.0490 95° East 493 567 38,000  Level FlightAware ADS-B
Mon 05:59:20 PM 42.3410 -82.9350 95° East 493 567 38,000  Level FlightAware ADS-B
Mon 05:59:56 PM 42.3340 -82.8330 95° East 493 567 38,000  Level FlightAware ADS-B
Mon 06:00:32 PM 42.3260 -82.7170 95° East 494 568 38,000  Level FlightAware ADS-B
Mon 06:01:04 PM 42.3180 -82.6180 96° East 494 568 38,000  Level FlightAware ADS-B
Mon 06:01:36 PM 42.3110 -82.5210 96° East 493 567 38,000 -83 Level FlightAware ADS-B
Mon 06:02:16 PM 42.3020 -82.3980 96° East 490 564 37,900 -474 Descending FlightAware ADS-B
Mon 06:02:52 PM 42.2940 -82.2890 96° East 490 564 37,400 -818 Descending FlightAware ADS-B
Mon 06:03:22 PM 42.2870 -82.1980 96° East 492 566 37,000 -353 Descending FlightAware ADS-B
Mon 06:04:00 PM 42.2790 -82.1070 97° East 494 568 37,000  Level FlightAware ADS-B
Mon 06:04:29 PM 42.2720 -82.0150 96° East 494 568 37,000  Level FlightAware ADS-B
Mon 06:05:10 PM 42.2620 -81.8830 96° East 494 568 37,000  Level FlightAware ADS-B
Mon 06:05:42 PM 42.2540 -81.7910 97° East 495 570 37,000  Level FlightAware ADS-B
Mon 06:06:18 PM 42.2450 -81.6750 96° East 494 568 37,000  Level FlightAware ADS-B
Mon 06:06:58 PM 42.2350 -81.5590 97° East 494 568 37,000  Level FlightAware ADS-B
Mon 06:07:31 PM 42.2260 -81.4460 96° East 493 567 37,000  Level FlightAware ADS-B
Mon 06:08:02 PM 42.2180 -81.3600 97° East 494 568 37,000  Level FlightAware ADS-B
Mon 06:08:39 PM 42.2090 -81.2480 96° East 495 570 37,000  Level FlightAware ADS-B
Mon 06:09:14 PM 42.2000 -81.1440 97° East 496 571 37,000  Level FlightAware ADS-B
Mon 06:09:50 PM 42.1900 -81.0260 96° East 497 572 37,000  Level FlightAware ADS-B
Mon 06:10:24 PM 42.1800 -80.9220 97° East 497 572 37,000  Level FlightAware ADS-B
Mon 06:11:00 PM 42.1710 -80.8190 97° East 498 573 37,000  Level FlightAware ADS-B
Mon 06:11:33 PM 42.1600 -80.6970 97° East 497 572 37,000  Level FlightAware ADS-B
Mon 06:12:10 PM 42.1490 -80.5800 97° East 497 572 37,000  Level FlightAware ADS-B
Mon 06:12:45 PM 42.1400 -80.4760 97° East 498 573 37,000  Level FlightAware ADS-B
Mon 06:13:21 PM 42.1290 -80.3600 97° East 498 573 37,000  Level FlightAware ADS-B
Mon 06:13:53 PM 42.1200 -80.2650 97° East 498 573 37,000  Level FlightAware ADS-B
Mon 06:14:28 PM 42.1100 -80.1560 97° East 499 574 37,000  Level FlightAware ADS-B
Mon 06:15:05 PM 42.0990 -80.0410 97° East 499 574 37,000  Level FlightAware ADS-B
Mon 06:15:40 PM 42.0880 -79.9340 98° East 498 573 37,000  Level FlightAware ADS-B
Mon 06:16:13 PM 42.0790 -79.8360 97° East 497 572 37,000  Level FlightAware ADS-B
Mon 06:16:47 PM 42.0680 -79.7320 98° East 497 572 37,000  Level FlightAware ADS-B
Mon 06:17:26 PM 42.0560 -79.6120 98° East 496 571 37,000  Level FlightAware ADS-B
Mon 06:17:59 PM 42.0460 -79.5120 98° East 494 568 37,000  Level FlightAware ADS-B
Mon 06:18:34 PM 42.0350 -79.4060 98° East 493 567 37,000  Level FlightAware ADS-B
Mon 06:19:10 PM 42.0240 -79.2960 98° East 492 566 37,000  Level FlightAware ADS-B
Mon 06:19:45 PM 42.0130 -79.1890 98° East 492 566 37,000  Level FlightAware ADS-B
Mon 06:20:22 PM 42.0010 -79.0800 98° East 492 566 37,000  Level FlightAware ADS-B
Mon 06:20:53 PM 41.9920 -78.9870 97° East 493 567 37,000  Level FlightAware ADS-B
Mon 06:21:24 PM 41.9810 -78.8900 99° East 494 568 37,000  Level FlightAware ADS-B
Mon 06:22:00 PM 41.9690 -78.7800 98° East 495 570 37,000  Level FlightAware ADS-B
Mon 06:22:42 PM 41.9550 -78.6520 98° East 495 570 37,000  Level FlightAware ADS-B
Mon 06:23:14 PM 41.9450 -78.5570 98° East 496 571 37,000  Level FlightAware ADS-B
Mon 06:23:50 PM 41.9330 -78.4470 98° East 495 570 37,000  Level FlightAware ADS-B
Mon 06:24:26 PM 41.9210 -78.3420 99° East 495 570 37,000  Level FlightAware ADS-B
Mon 06:25:00 PM 41.9100 -78.2400 98° East 495 570 37,000  Level FlightAware ADS-B
Mon 06:25:33 PM 41.8970 -78.1340 99° East 495 570 37,000  Level FlightAware ADS-B
Mon 06:26:09 PM 41.8850 -78.0280 99° East 495 570 37,000  Level FlightAware ADS-B
Mon 06:26:45 PM 41.8720 -77.9150 99° East 494 568 37,000  Level FlightAware ADS-B
Mon 06:27:21 PM 41.8530 -77.8090 103° East 497 572 37,000  Level FlightAware ADS-B
Mon 06:27:53 PM 41.8290 -77.7140 109° East 497 572 37,000  Level FlightAware ADS-B
Mon 06:28:29 PM 41.8020 -77.6120 110° East 496 571 37,000  Level FlightAware ADS-B
Mon 06:29:05 PM 41.7740 -77.5080 110° East 495 570 37,000  Level FlightAware ADS-B
Mon 06:29:41 PM 41.7460 -77.4040 110° East 495 570 37,000  Level FlightAware ADS-B
Mon 06:30:13 PM 41.7220 -77.3130 109° East 491 565 37,000  Level FlightAware ADS-B
Mon 06:30:49 PM 41.6940 -77.2080 110° East 489 563 37,000  Level FlightAware ADS-B
Mon 06:31:33 PM 41.6610 -77.0860 110° East 485 558 37,000  Level FlightAware ADS-B
Mon 06:32:15 PM 41.6330 -76.9810 110° East 484 557 37,000  Level FlightAware ADS-B
Mon 06:32:57 PM 41.6000 -76.8620 110° East 483 556 37,000  Level FlightAware ADS-B
Mon 06:33:27 PM 41.5780 -76.7800 110° East 483 556 37,000  Level FlightAware ADS-B
Mon 06:34:12 PM 41.5400 -76.6440 110° East 483 556 37,000 -375 Level FlightAware ADS-B
Mon 06:34:47 PM 41.5150 -76.5510 110° East 483 556 36,500 -857 Descending FlightAware ADS-B
Mon 06:35:22 PM 41.4900 -76.4600 110° East 484 557 36,000 -909 Descending FlightAware ADS-B
Mon 06:35:53 PM 41.4620 -76.3590 110° East 483 556 35,500 -930 Descending FlightAware ADS-B
Mon 06:36:33 PM 41.4310 -76.2480 110° East 482 555 34,900 -868 Descending FlightAware ADS-B
Mon 06:37:09 PM 41.4020 -76.1460 111° Southeast 482 555 34,400 -1,043 Descending FlightAware ADS-B
Mon 06:37:42 PM 41.3780 -76.0590 110° East 487 560 33,700 -1,304 Descending FlightAware ADS-B
Mon 06:38:18 PM 41.3480 -75.9540 111° Southeast 492 566 32,900 -1,164 Descending FlightAware ADS-B
Mon 06:38:49 PM 41.3250 -75.8720 110° East 493 567 32,400 -1,114 Descending FlightAware ADS-B
Mon 06:39:28 PM 41.2920 -75.7570 111° Southeast 496 571 31,600 -1,808 Descending FlightAware ADS-B
Mon 06:40:02 PM 41.2630 -75.6610 112° Southeast 497 572 30,200 -3,391 Descending FlightAware ADS-B
Mon 06:40:37 PM 41.2300 -75.5590 113° Southeast 502 578 27,700 -3,882 Descending FlightAware ADS-B
Mon 06:41:10 PM 41.2020 -75.4760 114° Southeast 499 574 25,800 -3,288 Descending FlightAware ADS-B
Mon 06:41:50 PM 41.1640 -75.3630 114° Southeast 483 556 23,700 -2,127 Descending FlightAware ADS-B
Mon 06:42:29 PM 41.1270 -75.2550 114° Southeast 482 555 23,000 -583 Descending FlightAware ADS-B
Mon 06:43:02 PM 41.0980 -75.1690 114° Southeast 481 554 23,000  Level FlightAware ADS-B
Mon 06:43:41 PM 41.0610 -75.0590 114° Southeast 484 557 23,000  Level FlightAware ADS-B
Mon 06:44:11 PM 41.0340 -74.9810 115° Southeast 482 555 23,000 -358 Level FlightAware ADS-B
Mon 06:44:48 PM 41.0020 -74.8770 112° Southeast 470 541 22,600 -667 Descending FlightAware ADS-B
Mon 06:45:23 PM 40.9860 -74.7850 103° East 461 531 22,200 -771 Descending FlightAware ADS-B
Mon 06:45:58 PM 40.9760 -74.6890 98° East 461 531 21,700 -1,000 Descending FlightAware ADS-B
Mon 06:46:35 PM 40.9650 -74.5860 98° East 457 526 21,000 -1,151 Descending FlightAware ADS-B
Mon 06:47:11 PM 40.9550 -74.4890 98° East 451 519 20,300 -1,075 Descending FlightAware ADS-B
Mon 06:47:42 PM 40.9450 -74.4060 99° East 442 509 19,800 -1,147 Descending FlightAware ADS-B
Mon 06:48:19 PM 40.9340 -74.3040 98° East 433 498 19,000 -649 Descending FlightAware ADS-B
Mon 06:48:56 PM 40.9220 -74.2100 100° East 384 442 19,000  Level FlightAware ADS-B
Mon 06:49:16 PM 40.9100 -74.1700 112° Southeast 362 417 19,000  Level FlightAware ADS-B
Mon 06:49:32 PM 40.8940 -74.1450 130° Southeast 350 403 19,000 -533 Level FlightAware ADS-B
Mon 06:50:01 PM 40.8583 -74.0999 136° Southeast 342 394 18,600 -1,149 Descending FlightAware ADS-B
Mon 06:50:19 PM 40.8379 -74.0749 137° Southeast 339 390 18,100 -1,455 Descending FlightAware ADS-B (KSNC)
Mon 06:50:34 PM 40.8204 -74.0538 137° Southeast 339 390 17,800 -1,696 Descending FlightAware ADS-B
Mon 06:51:05 PM 40.7849 -74.0101 137° Southeast 340 391 16,800 -1,789 Descending FlightAware ADS-B
Mon 06:51:31 PM 40.7557 -73.9735 137° Southeast 340 391 16,100 -1,525 Descending FlightAware ADS-B (KSNC)
Mon 06:52:04 PM 40.7160 -73.9280 139° Southeast 335 386 15,300 -1,463 Descending FlightAware ADS-B
Mon 06:52:12 PM 40.7060 -73.9220 156° South 333 383 15,100 -1,364 Descending FlightAware ADS-B
Mon 06:52:48 PM 40.6530 -73.9040 166° South 324 373 14,300 -1,412 Descending FlightAware ADS-B
Mon 06:53:20 PM 40.6060 -73.8890 166° South 321 369 13,500 -1,444 Descending FlightAware ADS-B
Mon 06:53:42 PM 40.5750 -73.8830 172° South 317 365 13,000 -1,161 Descending FlightAware ADS-B
Mon 06:54:22 PM 40.5270 -73.8880 185° South 308 354 12,300 -1,462 Descending FlightAware ADS-B
Mon 06:55:00 PM 40.4640 -73.8980 187° South 306 352 11,100 -1,541 Descending FlightAware ADS-B
Mon 06:55:36 PM 40.4140 -73.9060 187° South 297 342 10,400 -1,286 Descending FlightAware ADS-B
Mon 06:55:56 PM 40.3870 -73.9100 186° South 295 339 9,900 -1,350 Descending FlightAware ADS-B
Mon 06:56:16 PM 40.3600 -73.9140 186° South 293 337 9,500 -1,412 Descending FlightAware ADS-B
Mon 06:56:30 PM 40.3410 -73.9170 187° South 293 337 9,100 -1,636 Descending FlightAware ADS-B
Mon 06:57:00 PM 40.3020 -73.9020 164° South 293 337 8,300 -1,571 Descending FlightAware ADS-B
Mon 06:57:12 PM 40.2910 -73.8860 132° Southeast 292 336 8,000 -750 Descending FlightAware ADS-B
Mon 06:57:32 PM 40.2750 -73.8580 127° Southeast 296 341 7,900 -143 Descending FlightAware ADS-B
Mon 06:57:54 PM 40.2580 -73.8290 128° Southeast 294 338 7,900  Level FlightAware ADS-B
Mon 06:58:16 PM 40.2380 -73.7950 128° Southeast 295 339 7,900  Level FlightAware ADS-B
Mon 06:58:28 PM 40.2300 -73.7770 120° Southeast 295 339 7,900 -300 Level FlightAware ADS-B
Mon 06:58:36 PM 40.2270 -73.7640 107° East 291 335 7,800 -750 Descending FlightAware ADS-B
Mon 06:58:44 PM 40.2260 -73.7520 96° East 288 331 7,700 -1,000 Descending FlightAware ADS-B
Mon 06:59:12 PM 40.2400 -73.7110 66° East 276 318 7,200 -1,167 Descending FlightAware ADS-B
Mon 06:59:20 PM 40.2490 -73.7020 37° Northeast 274 315 7,000 -643 Descending FlightAware ADS-B
Mon 06:59:40 PM 40.2720 -73.6860 28° Northeast 272 313 6,900 -158 Descending FlightAware ADS-B
Mon 06:59:58 PM 40.2920 -73.6720 28° Northeast 274 315 6,900  Level FlightAware ADS-B
Mon 07:00:20 PM 40.3150 -73.6560 28° Northeast 273 314 6,900  Level FlightAware ADS-B
Mon 07:00:39 PM 40.3390 -73.6400 27° Northeast 273 314 6,900  Level FlightAware ADS-B
Mon 07:01:05 PM 40.3680 -73.6200 28° Northeast 272 313 6,900  Level FlightAware ADS-B
Mon 07:01:25 PM 40.3900 -73.6050 27° Northeast 273 314 6,900  Level FlightAware ADS-B
Mon 07:01:45 PM 40.4100 -73.5910 28° Northeast 272 313 6,900  Level FlightAware ADS-B
Mon 07:02:05 PM 40.4340 -73.5750 27° Northeast 272 313 6,900  Level FlightAware ADS-B
Mon 07:02:24 PM 40.4550 -73.5600 29° Northeast 272 313 6,900  Level FlightAware ADS-B
Mon 07:02:49 PM 40.4800 -73.5430 27° Northeast 272 313 6,900  Level FlightAware ADS-B
Mon 07:03:09 PM 40.5050 -73.5260 27° Northeast 274 315 6,900 -333 Level FlightAware ADS-B
Mon 07:03:25 PM 40.5230 -73.5140 27° Northeast 270 311 6,700 -909 Descending FlightAware ADS-B
Mon 07:03:42 PM 40.5430 -73.5010 26° Northeast 264 304 6,400 -1,059 Descending FlightAware ADS-B
Mon 07:03:59 PM 40.5590 -73.4890 30° Northeast 261 300 6,100 -1,000 Descending FlightAware ADS-B
Mon 07:04:24 PM 40.5880 -73.4700 26° Northeast 257 296 5,700 -980 Descending FlightAware ADS-B
Mon 07:04:48 PM 40.6130 -73.4530 27° Northeast 251 289 5,300 -1,000 Descending FlightAware ADS-B
Mon 07:05:00 PM 40.6250 -73.4440 30° Northeast 249 287 5,100 -1,059 Descending FlightAware ADS-B
Mon 07:05:22 PM 40.6470 -73.4290 27° Northeast 245 282 4,700 -1,241 Descending FlightAware ADS-B
Mon 07:05:29 PM 40.6550 -73.4270 11° North 241 277 4,500 -1,167 Descending FlightAware ADS-B
Mon 07:05:58 PM 40.6860 -73.4340 350° North 237 273 4,000 -735 Descending FlightAware ADS-B
Mon 07:06:18 PM 40.7080 -73.4400 348° North 234 269 3,900 -150 Descending FlightAware ADS-B
Mon 07:06:38 PM 40.7290 -73.4470 346° North 228 262 3,900  Level FlightAware ADS-B
Mon 07:06:52 PM 40.7430 -73.4530 342° North 229 264 3,900 -273 Level FlightAware ADS-B
Mon 07:07:00 PM 40.7500 -73.4600 323° Northwest 227 261 3,800 -750 Descending FlightAware ADS-B
Mon 07:07:08 PM 40.7540 -73.4670 307° West 227 261 3,700 -960 Descending FlightAware ADS-B
Mon 07:07:25 PM 40.7650 -73.4880 305° West 227 261 3,400 -878 Descending FlightAware ADS-B
Mon 07:07:49 PM 40.7790 -73.5140 305° West 221 254 3,100 -698 Descending FlightAware ADS-B
Mon 07:08:08 PM 40.7890 -73.5340 303° West 212 244 2,900 -293 Descending FlightAware ADS-B
Mon 07:08:30 PM 40.8020 -73.5570 307° West 190 219 2,900 -261 Level FlightAware ADS-B
Mon 07:08:54 PM 40.8130 -73.5780 305° West 179 206 2,700 -429 Descending FlightAware ADS-B
Mon 07:08:58 PM 40.8140 -73.5830 285° West 178 205 2,700 -600 Level FlightAware ADS-B
Mon 07:09:04 PM 40.8150 -73.5900 281° West 179 206 2,600 -923 Descending FlightAware ADS-B
Mon 07:09:24 PM 40.8100 -73.6110 253° West 182 209 2,300 -1,000 Descending FlightAware ADS-B
Mon 07:09:34 PM 40.8060 -73.6190 237° Southwest 184 212 2,100 -1,000 Descending FlightAware ADS-B
Mon 07:09:42 PM 40.8010 -73.6260 227° Southwest 185 213 2,000 -429 Descending FlightAware ADS-B
Mon 07:10:02 PM 40.7870 -73.6410 219° Southwest 187 215 1,900 -150 Descending FlightAware ADS-B
Mon 07:10:22 PM 40.7740 -73.6540 217° Southwest 185 213 1,900  Level FlightAware ADS-B
Mon 07:10:46 PM 40.7570 -73.6680 212° Southwest 186 214 1,900  Level FlightAware ADS-B
Mon 07:11:02 PM 40.7440 -73.6780 210° Southwest 185 213 1,900 -150 Level FlightAware ADS-B
Mon 07:11:26 PM 40.7270 -73.6910 210° Southwest 182 209 1,800 -545 Descending FlightAware ADS-B
Mon 07:11:46 PM 40.7130 -73.7020 211° Southwest 162 186 1,500 -818 Descending FlightAware ADS-B
Mon 07:12:10 PM 40.6990 -73.7130 211° Southwest 139 160 1,200 -818 Descending FlightAware ADS-B
Mon 07:12:30 PM 40.6880 -73.7210 209° Southwest 129 148 900 -750 Descending FlightAware ADS-B
Mon 07:12:50 PM 40.6780 -73.7290 211° Southwest 127 146 700 -600 Descending FlightAware ADS-B
Mon 07:13:10 PM 40.6680 -73.7370 211° Southwest 126 145 500 -698 Descending FlightAware ADS-B
Mon 07:13:33 PM 40.6560 -73.7470 212° Southwest 128 147 200 -783 Descending FlightAware ADS-B
Mon 07:13:54 PM 40.6460 -73.7550 211° Southwest 129 148 -571 Descending FlightAware ADS-B
Mon 07:14:14 PM 40.6360 -73.7620 208° Southwest 90 104  Level FlightAware ADS-B

Login

Don't have an account? Register now (free) for customized features, flight alerts, and more!